createdAt,value
2019-05-20T00:00:30.436Z,97.73
2019-05-20T00:01:30.423Z,97.73
2019-05-20T00:02:30.415Z,98.34
2019-05-20T00:03:30.406Z,98.14
2019-05-20T00:04:30.389Z,98.34
2019-05-20T00:05:30.407Z,98.24
2019-05-20T00:06:30.367Z,98.54
2019-05-20T00:07:30.362Z,98.24
2019-05-20T00:08:30.348Z,97.94
2019-05-20T00:09:30.337Z,98.44
2019-05-20T00:10:30.336Z,98.08
2019-05-20T00:11:30.315Z,98.18
2019-05-20T00:12:30.302Z,98.28
2019-05-20T00:13:30.294Z,98.39
2019-05-20T00:14:30.281Z,98.18
2019-05-20T00:15:30.272Z,98.33
2019-05-20T00:16:30.261Z,97.98
2019-05-20T00:17:30.250Z,98.39
2019-05-20T00:18:30.240Z,99.04
2019-05-20T00:19:30.228Z,99.24
2019-05-20T00:20:30.213Z,99.35
2019-05-20T00:21:30.203Z,99.14
2019-05-20T00:22:30.196Z,99.44
2019-05-20T00:23:30.182Z,99.55
2019-05-20T00:24:30.176Z,99.35
2019-05-20T00:25:30.161Z,99.99
2019-05-20T00:26:30.149Z,99.24
2019-05-20T00:27:30.137Z,99.04
2019-05-20T00:28:30.137Z,99.40
2019-05-20T00:29:30.116Z,99.55
2019-05-20T00:30:30.108Z,99.65
2019-05-20T00:31:30.097Z,99.04
2019-05-20T00:32:40.596Z,99.70
2019-05-20T00:33:31.082Z,99.65
2019-05-20T00:34:35.000Z,99.44
2019-05-20T00:35:31.052Z,99.44
2019-05-20T00:36:30.044Z,99.55
2019-05-20T00:37:30.039Z,99.35
2019-05-20T00:38:30.026Z,99.44
2019-05-20T00:39:30.012Z,99.55
2019-05-20T00:40:30.029Z,99.35
2019-05-20T00:41:29.985Z,99.44
2019-05-20T00:42:29.976Z,99.30
2019-05-20T00:43:29.982Z,98.69
2019-05-20T00:44:29.950Z,99.04
2019-05-20T00:45:29.946Z,99.10
2019-05-20T00:46:29.941Z,99.04
2019-05-20T00:47:29.918Z,99.14
2019-05-20T00:48:29.909Z,98.94
2019-05-20T00:49:29.896Z,99.14
2019-05-20T00:50:29.892Z,99.04
2019-05-20T00:51:29.880Z,99.14
2019-05-20T00:52:29.865Z,99.24
2019-05-20T00:53:29.853Z,99.08
2019-05-20T00:54:29.843Z,99.29
2019-05-20T00:55:29.836Z,99.08
2019-05-20T00:56:29.822Z,99.60
2019-05-20T00:57:29.835Z,99.39
2019-05-20T00:58:29.805Z,99.39
2019-05-20T00:59:29.793Z,99.69
2019-05-20T01:00:29.780Z,99.60
2019-05-20T01:01:29.770Z,99.99
2019-05-20T01:02:29.763Z,99.99
2019-05-20T01:03:29.753Z,99.99
2019-05-20T01:04:29.753Z,99.99
2019-05-20T01:05:29.724Z,99.99
2019-05-20T01:06:29.718Z,99.99
2019-05-20T01:07:29.701Z,99.99
2019-05-20T01:08:29.692Z,99.99
2019-05-20T01:09:29.680Z,99.99
2019-05-20T01:10:29.704Z,99.99
2019-05-20T01:11:29.663Z,99.99
2019-05-20T01:12:29.647Z,99.99
2019-05-20T01:13:29.634Z,99.75
2019-05-20T01:14:29.627Z,99.95
2019-05-20T01:15:29.617Z,99.75
2019-05-20T01:16:29.603Z,99.69
2019-05-20T01:17:29.591Z,99.99
2019-05-20T01:18:29.583Z,99.99
2019-05-20T01:19:29.566Z,99.90
2019-05-20T01:20:29.558Z,99.90
2019-05-20T01:21:29.547Z,99.75
2019-05-20T01:22:29.535Z,99.99
2019-05-20T01:23:29.530Z,99.35
2019-05-20T01:24:29.566Z,99.99
2019-05-20T01:25:29.510Z,99.24
2019-05-20T01:26:29.495Z,99.30
2019-05-20T01:27:29.517Z,99.19
2019-05-20T01:28:29.472Z,99.35
2019-05-20T01:29:29.457Z,98.43
2019-05-20T01:30:29.446Z,98.63
2019-05-20T01:31:29.446Z,99.35
2019-05-20T01:32:29.439Z,99.04
2019-05-20T01:33:29.421Z,99.04
2019-05-20T01:34:29.409Z,99.04
2019-05-20T01:35:29.402Z,98.94
2019-05-20T01:36:29.391Z,99.04
2019-05-20T01:37:29.374Z,99.35
2019-05-20T01:38:29.364Z,99.44
2019-05-20T01:39:29.474Z,99.55
2019-05-20T01:40:29.339Z,99.60
2019-05-20T01:41:29.329Z,99.55
2019-05-20T01:42:29.321Z,99.75
2019-05-20T01:43:29.308Z,99.60
2019-05-20T01:44:29.299Z,99.69
2019-05-20T01:45:29.324Z,99.44
2019-05-20T01:46:29.274Z,99.24
2019-05-20T01:47:29.267Z,99.80
2019-05-20T01:48:29.259Z,99.60
2019-05-20T01:49:29.250Z,99.49
2019-05-20T01:50:29.235Z,99.49
2019-05-20T01:51:29.236Z,99.60
2019-05-20T01:52:29.216Z,99.49
2019-05-20T01:53:29.207Z,99.99
2019-05-20T01:54:29.193Z,99.99
2019-05-20T01:55:29.175Z,99.49
2019-05-20T01:56:29.168Z,99.64
2019-05-20T01:57:29.160Z,99.99
2019-05-20T01:58:29.148Z,99.44
2019-05-20T01:59:29.135Z,99.95
2019-05-20T02:00:29.124Z,99.99
2019-05-20T02:01:29.112Z,99.99
2019-05-20T02:02:29.104Z,99.99
2019-05-20T02:03:32.134Z,99.99
2019-05-20T02:04:29.082Z,99.99
2019-05-20T02:05:29.074Z,99.99
2019-05-20T02:06:29.056Z,99.99
2019-05-20T02:07:29.048Z,99.99
2019-05-20T02:08:29.040Z,99.99
2019-05-20T02:09:29.026Z,99.99
2019-05-20T02:10:29.013Z,99.99
2019-05-20T02:11:29.006Z,99.99
2019-05-20T02:12:28.995Z,99.99
2019-05-20T02:13:28.982Z,99.99
2019-05-20T02:14:28.976Z,99.99
2019-05-20T02:15:28.969Z,99.99
2019-05-20T02:16:28.949Z,99.99
2019-05-20T02:17:28.945Z,99.99
2019-05-20T02:18:28.943Z,99.99
2019-05-20T02:19:28.924Z,99.99
2019-05-20T02:20:28.910Z,99.99
2019-05-20T02:21:28.903Z,99.99
2019-05-20T02:22:28.886Z,99.99
2019-05-20T02:23:28.872Z,99.99
2019-05-20T02:24:28.860Z,99.99
2019-05-20T02:25:28.863Z,99.99
2019-05-20T02:26:28.841Z,99.99
2019-05-20T02:27:28.828Z,99.99
2019-05-20T02:28:28.824Z,99.99
2019-05-20T02:29:28.833Z,99.99
2019-05-20T02:30:28.803Z,99.99
2019-05-20T02:31:28.794Z,99.99
2019-05-20T02:32:28.796Z,99.99
2019-05-20T02:33:28.768Z,99.80
2019-05-20T02:34:28.755Z,99.99
2019-05-20T02:35:28.744Z,99.99
2019-05-20T02:36:28.740Z,99.99
2019-05-20T02:37:28.722Z,99.90
2019-05-20T02:38:28.712Z,99.99
2019-05-20T02:39:28.703Z,99.99
2019-05-20T02:40:28.688Z,99.99
2019-05-20T02:41:28.679Z,99.99
2019-05-20T02:42:28.667Z,99.60
2019-05-20T02:43:28.658Z,99.95
2019-05-20T02:44:28.648Z,99.74
2019-05-20T02:45:28.635Z,99.44
2019-05-20T02:46:28.627Z,99.54
2019-05-20T02:47:28.624Z,99.95
2019-05-20T02:48:28.602Z,99.33
2019-05-20T02:49:28.589Z,99.99
2019-05-20T02:50:28.581Z,99.99
2019-05-20T02:51:28.573Z,99.99
2019-05-20T02:52:28.559Z,99.99
2019-05-20T02:53:28.542Z,99.85
2019-05-20T02:54:28.534Z,99.99
2019-05-20T02:55:28.529Z,99.99
2019-05-20T02:56:28.522Z,99.99
2019-05-20T02:57:28.504Z,99.85
2019-05-20T02:58:28.490Z,99.99
2019-05-20T02:59:28.477Z,99.99
2019-05-20T03:00:28.470Z,99.99
2019-05-20T03:01:28.458Z,99.89
2019-05-20T03:02:28.449Z,99.99
2019-05-20T03:03:28.438Z,99.99
2019-05-20T03:04:28.428Z,99.99
2019-05-20T03:05:28.419Z,99.99
2019-05-20T03:06:28.405Z,99.99
2019-05-20T03:07:28.397Z,99.99
2019-05-20T03:08:28.388Z,99.99
2019-05-20T03:09:28.371Z,99.99
2019-05-20T03:10:28.372Z,99.99
2019-05-20T03:11:28.353Z,99.99
2019-05-20T03:12:28.346Z,99.99
2019-05-20T03:13:28.333Z,99.99
2019-05-20T03:14:28.320Z,99.99
2019-05-20T03:15:28.310Z,99.99
2019-05-20T03:16:28.298Z,99.99
2019-05-20T03:17:28.294Z,99.99
2019-05-20T03:18:28.307Z,99.99
2019-05-20T03:19:28.269Z,99.99
2019-05-20T03:20:28.253Z,99.99
2019-05-20T03:21:28.246Z,99.99
2019-05-20T03:22:28.228Z,99.99
2019-05-20T03:23:28.222Z,99.99
2019-05-20T03:24:28.209Z,99.99
2019-05-20T03:25:28.200Z,99.99
2019-05-20T03:26:28.192Z,99.95
2019-05-20T03:27:28.178Z,99.99
2019-05-20T03:28:28.164Z,99.99
2019-05-20T03:29:28.156Z,99.99
2019-05-20T03:30:28.144Z,99.99
2019-05-20T03:31:28.140Z,99.99
2019-05-20T03:32:28.125Z,99.85
2019-05-20T03:33:28.127Z,99.99
2019-05-20T03:34:45.715Z,99.74
2019-05-20T03:35:29.113Z,99.99
2019-05-20T03:36:28.079Z,99.99
2019-05-20T03:37:28.068Z,99.85
2019-05-20T03:38:28.054Z,99.44
2019-05-20T03:39:28.052Z,99.99
2019-05-20T03:40:28.042Z,99.60
2019-05-20T03:41:28.030Z,99.64
2019-05-20T03:42:28.021Z,99.44
2019-05-20T03:43:28.004Z,99.54
2019-05-20T03:44:27.988Z,99.44
2019-05-20T03:45:27.975Z,99.85
2019-05-20T03:46:27.968Z,99.44
2019-05-20T03:47:27.965Z,98.88
2019-05-20T03:48:27.949Z,99.29
2019-05-20T03:49:27.944Z,99.08
2019-05-20T03:50:27.928Z,99.24
2019-05-20T03:51:27.917Z,99.08
2019-05-20T03:52:27.903Z,99.33
2019-05-20T03:53:27.921Z,98.99
2019-05-20T03:54:27.886Z,99.08
2019-05-20T03:55:27.874Z,98.99
2019-05-20T03:56:27.861Z,98.79
2019-05-20T03:57:27.852Z,99.29
2019-05-20T03:58:27.836Z,98.88
2019-05-20T03:59:27.850Z,98.68
2019-05-20T04:00:27.825Z,98.03
2019-05-20T04:01:27.809Z,98.58
2019-05-20T04:02:27.801Z,97.87
2019-05-20T04:03:27.784Z,98.03
2019-05-20T04:04:27.775Z,98.48
2019-05-20T04:05:27.766Z,98.48
2019-05-20T04:06:27.758Z,98.63
2019-05-20T04:07:27.739Z,97.83
2019-05-20T04:08:27.729Z,97.72
2019-05-20T04:09:27.719Z,97.83
2019-05-20T04:10:27.709Z,97.72
2019-05-20T04:11:27.704Z,97.72
2019-05-20T04:12:27.684Z,98.13
2019-05-20T04:13:27.685Z,97.52
2019-05-20T04:14:27.669Z,97.22
2019-05-20T04:15:27.653Z,97.22
2019-05-20T04:16:27.648Z,97.22
2019-05-20T04:17:27.641Z,97.47
2019-05-20T04:18:27.622Z,97.11
2019-05-20T04:19:27.613Z,97.11
2019-05-20T04:20:27.599Z,97.17
2019-05-20T04:21:27.602Z,96.97
2019-05-20T04:22:27.587Z,96.77
2019-05-20T04:23:27.567Z,96.87
2019-05-20T04:24:27.556Z,96.66
2019-05-20T04:25:27.545Z,96.97
2019-05-20T04:26:27.537Z,97.17
2019-05-20T04:27:27.521Z,95.95
2019-05-20T04:28:27.514Z,96.36
2019-05-20T04:29:27.511Z,96.06
2019-05-20T04:30:27.489Z,95.61
2019-05-20T04:31:27.478Z,95.95
2019-05-20T04:32:27.468Z,95.71
2019-05-20T04:33:27.456Z,95.86
2019-05-20T04:34:27.446Z,95.65
2019-05-20T04:35:27.440Z,95.71
2019-05-20T04:36:27.429Z,95.95
2019-05-20T04:37:27.415Z,95.61
2019-05-20T04:38:27.402Z,95.71
2019-05-20T04:39:27.394Z,95.71
2019-05-20T04:40:27.377Z,95.65
2019-05-20T04:41:27.379Z,95.86
2019-05-20T04:42:27.361Z,95.95
2019-05-20T04:43:27.344Z,95.55
2019-05-20T04:44:27.337Z,95.30
2019-05-20T04:45:27.342Z,95.00
2019-05-20T04:46:27.313Z,95.50
2019-05-20T04:47:27.311Z,95.61
2019-05-20T04:48:27.296Z,95.00
2019-05-20T04:49:27.285Z,95.00
2019-05-20T04:50:27.270Z,94.90
2019-05-20T04:51:27.273Z,95.56
2019-05-20T04:52:27.264Z,94.09
2019-05-20T04:53:27.239Z,95.00
2019-05-20T04:54:27.234Z,94.79
2019-05-20T04:55:27.219Z,94.39
2019-05-20T04:56:29.322Z,94.39
2019-05-20T04:57:27.195Z,94.79
2019-05-20T04:58:27.184Z,94.24
2019-05-20T04:59:27.196Z,93.84
2019-05-20T05:00:27.171Z,93.63
2019-05-20T05:01:27.150Z,93.43
2019-05-20T05:02:27.138Z,93.54
2019-05-20T05:03:27.129Z,93.23
2019-05-20T05:04:27.123Z,93.08
2019-05-20T05:05:37.068Z,93.19
2019-05-20T05:06:28.101Z,93.19
2019-05-20T05:07:27.088Z,92.68
2019-05-20T05:08:27.079Z,92.68
2019-05-20T05:09:27.060Z,92.24
2019-05-20T05:10:27.053Z,92.03
2019-05-20T05:11:27.043Z,91.53
2019-05-20T05:12:27.038Z,91.89
2019-05-20T05:13:27.027Z,91.78
2019-05-20T05:14:27.102Z,92.05
2019-05-20T05:15:27.163Z,90.73
2019-05-20T05:16:27.069Z,90.94
2019-05-20T05:17:27.028Z,89.92
2019-05-20T05:18:27.131Z,89.32
2019-05-20T05:19:27.045Z,89.83
2019-05-20T05:20:26.942Z,89.92
2019-05-20T05:21:26.936Z,88.97
2019-05-20T05:22:26.921Z,88.47
2019-05-20T05:23:26.913Z,88.43
2019-05-20T05:24:26.898Z,88.17
2019-05-20T05:25:26.890Z,88.77
2019-05-20T05:26:26.879Z,88.06
2019-05-20T05:27:26.865Z,88.10
2019-05-20T05:28:26.859Z,88.71
2019-05-20T05:29:26.848Z,88.31
2019-05-20T05:30:26.838Z,89.01
2019-05-20T05:31:26.820Z,87.60
2019-05-20T05:32:26.817Z,88.10
2019-05-20T05:33:26.805Z,88.61
2019-05-20T05:34:26.794Z,88.51
2019-05-20T05:35:26.782Z,87.96
2019-05-20T05:36:26.770Z,87.30
2019-05-20T05:37:26.766Z,88.06
2019-05-20T05:38:26.745Z,86.75
2019-05-20T05:39:26.758Z,85.70
2019-05-20T05:40:26.724Z,84.65
2019-05-20T05:41:26.718Z,85.31
2019-05-20T05:42:26.704Z,85.22
2019-05-20T05:43:26.701Z,84.01
2019-05-20T05:44:26.691Z,84.11
2019-05-20T05:45:29.160Z,84.31
2019-05-20T05:46:26.690Z,83.91
2019-05-20T05:47:26.658Z,82.70
2019-05-20T05:48:26.643Z,82.79
2019-05-20T05:49:26.641Z,83.40
2019-05-20T05:50:26.612Z,83.60
2019-05-20T05:51:26.609Z,83.80
2019-05-20T05:52:26.598Z,85.11
2019-05-20T05:53:26.581Z,82.64
2019-05-20T05:54:26.578Z,83.80
2019-05-20T05:55:26.563Z,84.11
2019-05-20T05:56:26.548Z,83.87
2019-05-20T05:57:26.541Z,83.36
2019-05-20T05:58:26.530Z,81.91
2019-05-20T05:59:26.516Z,82.35
2019-05-20T06:00:26.795Z,81.24
2019-05-20T06:01:26.536Z,81.95
2019-05-20T06:02:26.496Z,81.71
2019-05-20T06:03:26.489Z,80.77
2019-05-20T06:04:26.467Z,81.13
2019-05-20T06:05:26.453Z,80.99
2019-05-20T06:06:26.439Z,79.30
2019-05-20T06:07:26.425Z,79.77
2019-05-20T06:08:26.418Z,77.32
2019-05-20T06:09:26.404Z,76.89
2019-05-20T06:10:26.409Z,75.48
2019-05-20T06:11:26.383Z,74.98
2019-05-20T06:12:26.379Z,74.04
2019-05-20T06:13:26.361Z,74.27
2019-05-20T06:14:26.352Z,72.74
2019-05-20T06:15:26.341Z,73.10
2019-05-20T06:16:35.895Z,72.50
2019-05-20T06:17:27.328Z,71.09
2019-05-20T06:18:26.331Z,72.09
2019-05-20T06:19:26.318Z,73.36
2019-05-20T06:20:26.287Z,72.43
2019-05-20T06:21:26.278Z,71.19
2019-05-20T06:22:26.268Z,69.82
2019-05-20T06:23:26.255Z,70.19
2019-05-20T06:24:26.242Z,70.36
2019-05-20T06:25:26.233Z,70.83
2019-05-20T06:26:26.223Z,68.82
2019-05-20T06:27:26.210Z,68.16
2019-05-20T06:28:26.209Z,69.93
2019-05-20T06:29:26.198Z,68.99
2019-05-20T06:30:26.178Z,66.82
2019-05-20T06:31:26.168Z,68.79
2019-05-20T06:32:26.170Z,66.99
2019-05-20T06:33:26.147Z,67.02
2019-05-20T06:34:26.137Z,69.16
2019-05-20T06:35:26.129Z,68.13
2019-05-20T06:36:27.299Z,67.52
2019-05-20T06:37:26.102Z,67.22
2019-05-20T06:38:26.091Z,66.93
2019-05-20T06:39:26.084Z,68.82
2019-05-20T06:40:26.152Z,69.29
2019-05-20T06:41:26.057Z,67.13
2019-05-20T06:42:26.069Z,67.82
2019-05-20T06:43:26.062Z,67.93
2019-05-20T06:44:26.029Z,67.52
2019-05-20T06:45:26.016Z,67.29
2019-05-20T06:46:26.006Z,67.13
2019-05-20T06:47:26.028Z,67.13
2019-05-20T06:48:25.982Z,67.82
2019-05-20T06:49:25.973Z,68.05
2019-05-20T06:50:29.494Z,69.36
2019-05-20T06:51:25.951Z,68.76
2019-05-20T06:52:35.480Z,70.26
2019-05-20T06:53:26.968Z,68.82
2019-05-20T06:54:25.916Z,67.59
2019-05-20T06:55:25.909Z,68.69
2019-05-20T06:56:25.901Z,68.46
2019-05-20T06:57:25.937Z,66.63
2019-05-20T06:58:25.963Z,67.23
2019-05-20T06:59:25.861Z,64.87
2019-05-20T07:00:25.885Z,62.67
2019-05-20T07:01:25.857Z,63.90
2019-05-20T07:02:25.893Z,66.39
2019-05-20T07:03:25.848Z,64.97
2019-05-20T07:04:25.813Z,64.34
2019-05-20T07:05:25.795Z,64.81
2019-05-20T07:06:25.789Z,62.88
2019-05-20T07:07:25.777Z,62.65
2019-05-20T07:08:25.841Z,63.75
2019-05-20T07:09:25.764Z,61.58
2019-05-20T07:10:25.751Z,62.61
2019-05-20T07:11:25.738Z,62.91
2019-05-20T07:12:40.203Z,60.95
2019-05-20T07:13:26.709Z,61.57
2019-05-20T07:14:25.705Z,64.53
2019-05-20T07:15:25.690Z,65.43
2019-05-20T07:16:25.684Z,65.33
2019-05-20T07:17:25.670Z,63.63
2019-05-20T07:18:27.553Z,65.70
2019-05-20T07:19:25.705Z,63.00
2019-05-20T07:20:25.704Z,63.97
2019-05-20T07:21:25.663Z,64.04
2019-05-20T07:22:25.620Z,62.01
2019-05-20T07:23:25.634Z,61.55
2019-05-20T07:24:25.600Z,61.71
2019-05-20T07:25:25.636Z,62.81
2019-05-20T07:26:25.570Z,60.62
2019-05-20T07:27:25.562Z,61.39
2019-05-20T07:28:25.547Z,58.89
2019-05-20T07:29:25.591Z,61.55
2019-05-20T07:30:25.534Z,61.06
2019-05-20T07:31:25.517Z,63.89
2019-05-20T07:32:25.505Z,58.71
2019-05-20T07:33:25.496Z,58.01
2019-05-20T07:34:25.645Z,60.38
2019-05-20T07:35:30.652Z,60.74
2019-05-20T07:36:26.494Z,57.66
2019-05-20T07:37:25.505Z,57.49
2019-05-20T07:38:25.440Z,57.62
2019-05-20T07:39:25.461Z,57.71
2019-05-20T07:40:25.427Z,60.38
2019-05-20T07:41:25.414Z,57.56
2019-05-20T07:42:25.403Z,58.92
2019-05-20T07:43:25.400Z,55.72
2019-05-20T07:44:25.398Z,56.32
2019-05-20T07:45:25.377Z,56.24
2019-05-20T07:46:25.364Z,57.73
2019-05-20T07:47:25.366Z,55.94
2019-05-20T07:48:25.368Z,58.50
2019-05-20T07:49:25.921Z,55.91
2019-05-20T07:50:25.318Z,54.72
2019-05-20T07:51:25.311Z,56.04
2019-05-20T07:52:25.293Z,57.29
2019-05-20T07:53:25.281Z,58.22
2019-05-20T07:54:25.275Z,58.81
2019-05-20T07:55:25.269Z,58.51
2019-05-20T07:56:25.266Z,59.08
2019-05-20T07:57:25.379Z,60.14
2019-05-20T07:58:25.234Z,57.73
2019-05-20T07:59:25.218Z,57.73
2019-05-20T08:00:25.209Z,59.00
2019-05-20T08:01:25.196Z,57.45
2019-05-20T08:02:25.198Z,55.47
2019-05-20T08:03:25.186Z,54.68
2019-05-20T08:04:25.234Z,57.65
2019-05-20T08:05:25.155Z,55.07
2019-05-20T08:06:25.225Z,56.73
2019-05-20T08:07:30.176Z,53.16
2019-05-20T08:08:26.145Z,53.75
2019-05-20T08:09:25.204Z,54.82
2019-05-20T08:10:25.102Z,54.94
2019-05-20T08:11:25.091Z,53.96
2019-05-20T08:12:25.081Z,53.48
2019-05-20T08:13:25.079Z,52.02
2019-05-20T08:14:25.062Z,52.74
2019-05-20T08:15:25.059Z,53.41
2019-05-20T08:16:25.045Z,52.94
2019-05-20T08:17:25.033Z,54.43
2019-05-20T08:18:25.025Z,54.40
2019-05-20T08:19:25.017Z,54.21
2019-05-20T08:20:25.007Z,54.28
2019-05-20T08:21:24.998Z,53.75
2019-05-20T08:22:24.985Z,52.54
2019-05-20T08:23:24.978Z,50.26
2019-05-20T08:24:24.968Z,50.46
2019-05-20T08:25:24.963Z,49.81
2019-05-20T08:26:24.970Z,52.64
2019-05-20T08:27:24.944Z,53.90
2019-05-20T08:28:24.925Z,50.34
2019-05-20T08:29:24.917Z,51.72
2019-05-20T08:30:24.909Z,53.31
2019-05-20T08:31:24.912Z,51.87
2019-05-20T08:32:25.069Z,49.77
2019-05-20T08:33:24.876Z,48.18
2019-05-20T08:34:24.864Z,49.87
2019-05-20T08:35:24.857Z,47.81
2019-05-20T08:36:24.862Z,48.55
2019-05-20T08:37:24.834Z,50.81
2019-05-20T08:38:24.825Z,51.70
2019-05-20T08:39:24.812Z,50.66
2019-05-20T08:40:24.815Z,48.77
2019-05-20T08:41:24.817Z,50.24
2019-05-20T08:42:24.783Z,48.43
2019-05-20T08:43:24.773Z,48.63
2019-05-20T08:44:24.762Z,48.43
2019-05-20T08:45:24.752Z,52.26
2019-05-20T08:46:24.763Z,49.48
2019-05-20T08:47:24.734Z,48.96
2019-05-20T08:48:24.732Z,48.54
2019-05-20T08:49:24.715Z,45.48
2019-05-20T08:50:24.703Z,46.19
2019-05-20T08:51:24.698Z,45.32
2019-05-20T08:52:24.686Z,45.96
2019-05-20T08:53:24.682Z,46.20
2019-05-20T08:54:24.700Z,48.36
2019-05-20T08:55:24.671Z,49.54
2019-05-20T08:56:24.650Z,50.31
2019-05-20T08:57:24.636Z,45.25
2019-05-20T08:58:24.688Z,45.67
2019-05-20T08:59:24.617Z,45.19
2019-05-20T09:00:25.093Z,46.28
2019-05-20T09:01:24.606Z,46.38
2019-05-20T09:02:24.624Z,47.42
2019-05-20T09:03:24.583Z,46.14
2019-05-20T09:04:24.575Z,43.94
2019-05-20T09:05:27.837Z,43.23
2019-05-20T09:06:24.555Z,43.37
2019-05-20T09:07:24.552Z,44.06
2019-05-20T09:08:24.551Z,46.75
2019-05-20T09:09:24.646Z,44.09
2019-05-20T09:10:24.517Z,46.73
2019-05-20T09:11:24.505Z,45.42
2019-05-20T09:12:24.602Z,45.08
2019-05-20T09:13:24.490Z,42.68
2019-05-20T09:14:24.486Z,41.78
2019-05-20T09:15:24.469Z,42.44
2019-05-20T09:16:24.462Z,46.26
2019-05-20T09:17:24.458Z,44.24
2019-05-20T09:18:24.441Z,43.03
2019-05-20T09:19:24.438Z,44.12
2019-05-20T09:20:24.653Z,43.19
2019-05-20T09:21:24.413Z,43.76
2019-05-20T09:22:24.402Z,43.71
2019-05-20T09:23:24.421Z,43.10
2019-05-20T09:24:24.391Z,39.40
2019-05-20T09:25:24.377Z,42.72
2019-05-20T09:26:24.375Z,43.96
2019-05-20T09:27:24.397Z,44.95
2019-05-20T09:28:24.348Z,46.04
2019-05-20T09:29:24.339Z,45.13
2019-05-20T09:30:24.329Z,45.79
2019-05-20T09:31:24.318Z,45.50
2019-05-20T09:32:24.308Z,43.92
2019-05-20T09:33:24.313Z,42.56
2019-05-20T09:34:24.343Z,43.55
2019-05-20T09:35:24.280Z,44.48
2019-05-20T09:36:26.048Z,45.49
2019-05-20T09:37:24.260Z,46.38
2019-05-20T09:38:24.255Z,46.04
2019-05-20T09:39:24.240Z,44.16
2019-05-20T09:40:24.389Z,44.38
2019-05-20T09:41:24.224Z,45.14
2019-05-20T09:42:24.210Z,47.69
2019-05-20T09:43:24.200Z,46.45
2019-05-20T09:44:24.192Z,45.32
2019-05-20T09:45:24.190Z,43.73
2019-05-20T09:46:24.199Z,43.09
2019-05-20T09:47:24.164Z,41.33
2019-05-20T09:48:25.250Z,42.36
2019-05-20T09:49:24.213Z,43.15
2019-05-20T09:50:24.133Z,43.73
2019-05-20T09:51:24.128Z,42.83
2019-05-20T09:52:24.163Z,43.33
2019-05-20T09:53:24.125Z,42.22
2019-05-20T09:54:24.095Z,43.43
2019-05-20T09:55:24.113Z,43.05
2019-05-20T09:56:24.073Z,42.54
2019-05-20T09:57:24.063Z,42.64
2019-05-20T09:58:24.056Z,41.91
2019-05-20T09:59:24.067Z,45.98
2019-05-20T10:00:24.034Z,43.70
2019-05-20T10:01:24.029Z,44.91
2019-05-20T10:02:33.735Z,40.00
2019-05-20T10:03:25.004Z,42.68
2019-05-20T10:04:24.003Z,40.90
2019-05-20T10:05:23.991Z,42.04
2019-05-20T10:06:23.982Z,41.04
2019-05-20T10:07:23.977Z,40.05
2019-05-20T10:08:37.418Z,42.61
2019-05-20T10:09:24.949Z,40.76
2019-05-20T10:10:23.945Z,39.60
2019-05-20T10:11:23.931Z,44.03
2019-05-20T10:12:23.927Z,40.86
2019-05-20T10:13:23.913Z,41.45
2019-05-20T10:14:23.906Z,43.34
2019-05-20T10:15:23.900Z,43.54
2019-05-20T10:16:23.888Z,42.13
2019-05-20T10:17:23.880Z,44.16
2019-05-20T10:18:36.716Z,44.10
2019-05-20T10:19:24.853Z,44.17
2019-05-20T10:20:23.856Z,46.78
2019-05-20T10:21:23.833Z,43.84
2019-05-20T10:22:23.827Z,42.21
2019-05-20T10:23:23.815Z,44.09
2019-05-20T10:24:23.805Z,45.35
2019-05-20T10:25:23.793Z,44.24
2019-05-20T10:26:23.789Z,42.74
2019-05-20T10:27:23.774Z,44.76
2019-05-20T10:28:23.763Z,44.23
2019-05-20T10:29:23.755Z,39.54
2019-05-20T10:30:23.748Z,40.78
2019-05-20T10:31:23.755Z,40.17
2019-05-20T10:32:23.727Z,38.80
2019-05-20T10:33:23.714Z,38.97
2019-05-20T10:34:23.706Z,40.01
2019-05-20T10:35:23.693Z,40.90
2019-05-20T10:36:23.702Z,41.89
2019-05-20T10:37:23.673Z,41.96
2019-05-20T10:38:23.695Z,40.21
2019-05-20T10:39:23.655Z,41.31
2019-05-20T10:40:23.642Z,41.30
2019-05-20T10:41:23.687Z,40.05
2019-05-20T10:42:23.625Z,39.92
2019-05-20T10:43:23.610Z,38.26
2019-05-20T10:44:23.603Z,39.95
2019-05-20T10:45:23.615Z,40.16
2019-05-20T10:46:23.596Z,40.78
2019-05-20T10:47:23.568Z,44.15
2019-05-20T10:48:23.560Z,42.58
2019-05-20T10:49:23.551Z,43.27
2019-05-20T10:50:23.542Z,42.52
2019-05-20T10:51:23.531Z,42.16
2019-05-20T10:52:23.526Z,45.25
2019-05-20T10:53:23.510Z,44.01
2019-05-20T10:54:23.502Z,46.11
2019-05-20T10:55:23.572Z,45.04
2019-05-20T10:56:23.480Z,45.57
2019-05-20T10:57:23.469Z,48.15
2019-05-20T10:58:23.462Z,49.74
2019-05-20T10:59:23.447Z,46.00
2019-05-20T11:00:23.445Z,47.88
2019-05-20T11:01:23.435Z,50.46
2019-05-20T11:02:23.419Z,46.83
2019-05-20T11:03:23.410Z,48.92
2019-05-20T11:04:23.403Z,50.81
2019-05-20T11:05:23.424Z,49.91
2019-05-20T11:06:23.376Z,49.44
2019-05-20T11:07:23.366Z,50.23
2019-05-20T11:08:23.353Z,49.61
2019-05-20T11:09:23.344Z,49.61
2019-05-20T11:10:23.332Z,49.39
2019-05-20T11:11:23.321Z,49.32
2019-05-20T11:12:23.353Z,49.93
2019-05-20T11:13:23.305Z,47.85
2019-05-20T11:14:23.336Z,49.84
2019-05-20T11:15:23.281Z,48.86
2019-05-20T11:16:23.269Z,49.44
2019-05-20T11:17:23.258Z,49.04
2019-05-20T11:18:23.254Z,47.35
2019-05-20T11:19:23.238Z,49.07
2019-05-20T11:20:23.226Z,47.97
2019-05-20T11:21:23.217Z,48.86
2019-05-20T11:22:23.205Z,50.16
2019-05-20T11:23:23.196Z,48.66
2019-05-20T11:24:23.182Z,48.29
2019-05-20T11:25:23.184Z,49.49
2019-05-20T11:26:23.163Z,50.10
2019-05-20T11:27:23.153Z,51.60
2019-05-20T11:28:23.139Z,49.61
2019-05-20T11:29:23.131Z,49.08
2019-05-20T11:30:23.120Z,50.28
2019-05-20T11:31:23.113Z,49.86
2019-05-20T11:32:23.126Z,50.35
2019-05-20T11:33:23.098Z,49.86
2019-05-20T11:34:23.084Z,48.44
2019-05-20T11:35:23.067Z,49.81
2019-05-20T11:36:23.057Z,47.33
2019-05-20T11:37:23.048Z,47.63
2019-05-20T11:38:23.031Z,48.30
2019-05-20T11:39:33.402Z,48.08
2019-05-20T11:40:24.012Z,48.47
2019-05-20T11:41:51.310Z,47.09
2019-05-20T11:42:23.992Z,46.12
2019-05-20T11:43:22.981Z,48.60
2019-05-20T11:44:22.967Z,46.53
2019-05-20T11:45:22.956Z,48.13
2019-05-20T11:46:22.946Z,47.92
2019-05-20T11:47:22.945Z,48.32
2019-05-20T11:48:22.925Z,49.21
2019-05-20T11:49:22.916Z,48.80
2019-05-20T11:50:22.905Z,47.03
2019-05-20T11:51:22.893Z,49.02
2019-05-20T11:52:22.884Z,49.34
2019-05-20T11:53:22.871Z,50.03
2019-05-20T11:54:22.866Z,51.70
2019-05-20T11:55:22.864Z,49.41
2019-05-20T11:56:22.845Z,50.90
2019-05-20T11:57:22.844Z,50.51
2019-05-20T11:58:22.819Z,52.29
2019-05-20T11:59:22.809Z,51.77
2019-05-20T12:00:22.797Z,49.99
2019-05-20T12:01:22.785Z,51.94
2019-05-20T12:02:22.784Z,50.46
2019-05-20T12:03:22.770Z,49.88
2019-05-20T12:04:22.754Z,50.31
2019-05-20T12:05:22.820Z,51.20
2019-05-20T12:06:22.734Z,49.93
2019-05-20T12:07:22.723Z,50.53
2019-05-20T12:08:22.711Z,50.70
2019-05-20T12:09:22.703Z,53.01
2019-05-20T12:10:22.689Z,51.32
2019-05-20T12:11:22.681Z,50.93
2019-05-20T12:12:22.670Z,52.02
2019-05-20T12:13:22.659Z,51.95
2019-05-20T12:14:22.646Z,52.14
2019-05-20T12:15:22.639Z,53.53
2019-05-20T12:16:22.625Z,51.65
2019-05-20T12:17:22.630Z,52.44
2019-05-20T12:18:22.606Z,52.34
2019-05-20T12:19:22.601Z,51.65
2019-05-20T12:20:22.580Z,51.95
2019-05-20T12:21:22.568Z,52.04
2019-05-20T12:22:22.561Z,52.54
2019-05-20T12:23:22.547Z,51.75
2019-05-20T12:24:22.536Z,52.72
2019-05-20T12:25:22.526Z,51.52
2019-05-20T12:26:22.931Z,51.42
2019-05-20T12:27:22.502Z,52.24
2019-05-20T12:28:22.495Z,51.23
2019-05-20T12:29:22.483Z,52.51
2019-05-20T12:30:22.480Z,51.75
2019-05-20T12:31:22.461Z,51.72
2019-05-20T12:32:22.456Z,52.02
2019-05-20T12:33:22.441Z,51.32
2019-05-20T12:34:22.447Z,52.02
2019-05-20T12:35:22.421Z,52.51
2019-05-20T12:36:22.405Z,51.89
2019-05-20T12:37:22.399Z,49.91
2019-05-20T12:38:22.387Z,50.60
2019-05-20T12:39:22.379Z,50.90
2019-05-20T12:40:22.363Z,53.28
2019-05-20T12:41:22.379Z,52.89
2019-05-20T12:42:22.341Z,50.70
2019-05-20T12:43:22.338Z,49.91
2019-05-20T12:44:22.319Z,51.30
2019-05-20T12:45:22.311Z,52.26
2019-05-20T12:46:22.300Z,52.14
2019-05-20T12:47:22.290Z,50.46
2019-05-20T12:48:22.317Z,49.57
2019-05-20T12:49:22.395Z,50.04
2019-05-20T12:50:22.256Z,50.09
2019-05-20T12:51:22.250Z,48.92
2019-05-20T12:52:22.238Z,48.43